Aviation Digital Data Service (ADDS)

Output produced by METARs form (0616 UTC 19 March 2019)
found at http://www.aviationweather.gov/metar/data/
 
METAR text: LPBJ 190600Z VRB01KT CAVOK 07/01 Q1022
Conditions at: LPBJ (BEJA (POR/GER-AF, PT) observed 0600 UTC 19 March 2019
Temperature: 7.0°C (45°F)
Dewpoint: 1.0°C (34°F) [RH = 66%]
Pressure (altimeter): 30.18 inches Hg (1022.0 mb)
Winds: variable direction winds at 1 MPH (1 knots; 0.5 m/s)
Visibility: 6 or more miles (10+ km)
Ceiling: ceiling and visibility are OK
Clouds: unknown
Weather: no significant weather observed at this time

METAR text: LPBJ 190500Z VRB02KT CAVOK 06/01 Q1022
Conditions at: LPBJ (BEJA (POR/GER-AF, PT) observed 0500 UTC 19 March 2019
Temperature: 6.0°C (43°F)
Dewpoint: 1.0°C (34°F) [RH = 70%]
Pressure (altimeter): 30.18 inches Hg (1022.0 mb)
Winds: variable direction winds at 2 MPH (2 knots; 1.0 m/s)
Visibility: 6 or more miles (10+ km)
Ceiling: ceiling and visibility are OK
Clouds: unknown
Weather: no significant weather observed at this time

METAR text: LPBJ 190400Z 00000KT CAVOK 07/01 Q1022
Conditions at: LPBJ (BEJA (POR/GER-AF, PT) observed 0400 UTC 19 March 2019
Temperature: 7.0°C (45°F)
Dewpoint: 1.0°C (34°F) [RH = 66%]
Pressure (altimeter): 30.18 inches Hg (1022.0 mb)
Winds: calm
Visibility: 6 or more miles (10+ km)
Ceiling: ceiling and visibility are OK
Clouds: unknown
Weather: no significant weather observed at this time

METAR text: LPBJ 190300Z 02003KT CAVOK 08/01 Q1023
Conditions at: LPBJ (BEJA (POR/GER-AF, PT) observed 0300 UTC 19 March 2019
Temperature: 8.0°C (46°F)
Dewpoint: 1.0°C (34°F) [RH = 61%]
Pressure (altimeter): 30.21 inches Hg (1023.0 mb)
Winds: from the NNE (20 degrees) at 3 MPH (3 knots; 1.5 m/s)
Visibility: 6 or more miles (10+ km)
Ceiling: ceiling and visibility are OK
Clouds: unknown
Weather: no significant weather observed at this time

METAR text: LPBJ 190200Z 36004KT CAVOK 09/02 Q1023
Conditions at: LPBJ (BEJA (POR/GER-AF, PT) observed 0200 UTC 19 March 2019
Temperature: 9.0°C (48°F)
Dewpoint: 2.0°C (36°F) [RH = 61%]
Pressure (altimeter): 30.21 inches Hg (1023.0 mb)
Winds: from the N (360 degrees) at 5 MPH (4 knots; 2.1 m/s)
Visibility: 6 or more miles (10+ km)
Ceiling: ceiling and visibility are OK
Clouds: unknown
Weather: no significant weather observed at this time

METAR text: LPBJ 190100Z 31002KT CAVOK 09/03 Q1023
Conditions at: LPBJ (BEJA (POR/GER-AF, PT) observed 0100 UTC 19 March 2019
Temperature: 9.0°C (48°F)
Dewpoint: 3.0°C (37°F) [RH = 66%]
Pressure (altimeter): 30.21 inches Hg (1023.0 mb)
Winds: from the NW (310 degrees) at 2 MPH (2 knots; 1.0 m/s)
Visibility: 6 or more miles (10+ km)
Ceiling: ceiling and visibility are OK
Clouds: unknown
Weather: no significant weather observed at this time

METAR text: LPBJ 190000Z 31007KT CAVOK 09/03 Q1023
Conditions at: LPBJ (BEJA (POR/GER-AF, PT) observed 0000 UTC 19 March 2019
Temperature: 9.0°C (48°F)
Dewpoint: 3.0°C (37°F) [RH = 66%]
Pressure (altimeter): 30.21 inches Hg (1023.0 mb)
Winds: from the NW (310 degrees) at 8 MPH (7 knots; 3.6 m/s)
Visibility: 6 or more miles (10+ km)
Ceiling: ceiling and visibility are OK
Clouds: unknown
Weather: no significant weather observed at this time

METAR text: LPBJ 182300Z 08005KT CAVOK 13/01 Q1023
Conditions at: LPBJ (BEJA (POR/GER-AF, PT) observed 2300 UTC 18 March 2019
Temperature: 13.0°C (55°F)
Dewpoint: 1.0°C (34°F) [RH = 44%]
Pressure (altimeter): 30.21 inches Hg (1023.0 mb)
Winds: from the E (80 degrees) at 6 MPH (5 knots; 2.6 m/s)
Visibility: 6 or more miles (10+ km)
Ceiling: ceiling and visibility are OK
Clouds: unknown
Weather: no significant weather observed at this time

METAR text: LPBJ 182200Z 07005KT CAVOK 13/04 Q1023
Conditions at: LPBJ (BEJA (POR/GER-AF, PT) observed 2200 UTC 18 March 2019
Temperature: 13.0°C (55°F)
Dewpoint: 4.0°C (39°F) [RH = 54%]
Pressure (altimeter): 30.21 inches Hg (1023.0 mb)
Winds: from the ENE (70 degrees) at 6 MPH (5 knots; 2.6 m/s)
Visibility: 6 or more miles (10+ km)
Ceiling: ceiling and visibility are OK
Clouds: unknown
Weather: no significant weather observed at this time

METAR text: LPBJ 182100Z 03009KT CAVOK 14/05 Q1023
Conditions at: LPBJ (BEJA (POR/GER-AF, PT) observed 2100 UTC 18 March 2019
Temperature: 14.0°C (57°F)
Dewpoint: 5.0°C (41°F) [RH = 55%]
Pressure (altimeter): 30.21 inches Hg (1023.0 mb)
Winds: from the NNE (30 degrees) at 10 MPH (9 knots; 4.6 m/s)
Visibility: 6 or more miles (10+ km)
Ceiling: ceiling and visibility are OK
Clouds: unknown
Weather: no significant weather observed at this time

METAR text: LPBJ 182000Z 03007KT CAVOK 14/05 Q1022
Conditions at: LPBJ (BEJA (POR/GER-AF, PT) observed 2000 UTC 18 March 2019
Temperature: 14.0°C (57°F)
Dewpoint: 5.0°C (41°F) [RH = 55%]
Pressure (altimeter): 30.18 inches Hg (1022.0 mb)
Winds: from the NNE (30 degrees) at 8 MPH (7 knots; 3.6 m/s)
Visibility: 6 or more miles (10+ km)
Ceiling: ceiling and visibility are OK
Clouds: unknown
Weather: no significant weather observed at this time

METAR text: LPBJ 181900Z 03009KT 9999 FEW045 16/06 Q1022
Conditions at: LPBJ (BEJA (POR/GER-AF, PT) observed 1900 UTC 18 March 2019
Temperature: 16.0°C (61°F)
Dewpoint: 6.0°C (43°F) [RH = 51%]
Pressure (altimeter): 30.18 inches Hg (1022.0 mb)
Winds: from the NNE (30 degrees) at 10 MPH (9 knots; 4.6 m/s)
Visibility: 6 or more miles (10+ km)
Ceiling: at least 12,000 feet AGL
Clouds: few clouds at 4500 feet AGL
Weather: no significant weather observed at this time

METAR text: LPBJ 181800Z 03012KT 9999 FEW048 19/05 Q1021
Conditions at: LPBJ (BEJA (POR/GER-AF, PT) observed 1800 UTC 18 March 2019
Temperature: 19.0°C (66°F)
Dewpoint: 5.0°C (41°F) [RH = 40%]
Pressure (altimeter): 30.15 inches Hg (1021.0 mb)
Winds: from the NNE (30 degrees) at 14 MPH (12 knots; 6.2 m/s)
Visibility: 6 or more miles (10+ km)
Ceiling: at least 12,000 feet AGL
Clouds: few clouds at 4800 feet AGL
Weather: no significant weather observed at this time

METAR text: LPBJ 181700Z 03011KT 9999 FEW048 20/06 Q1021
Conditions at: LPBJ (BEJA (POR/GER-AF, PT) observed 1700 UTC 18 March 2019
Temperature: 20.0°C (68°F)
Dewpoint: 6.0°C (43°F) [RH = 40%]
Pressure (altimeter): 30.15 inches Hg (1021.0 mb)
Winds: from the NNE (30 degrees) at 13 MPH (11 knots; 5.7 m/s)
Visibility: 6 or more miles (10+ km)
Ceiling: at least 12,000 feet AGL
Clouds: few clouds at 4800 feet AGL
Weather: no significant weather observed at this time

METAR text: LPBJ 181600Z 05012KT 9999 FEW045 20/07 Q1021
Conditions at: LPBJ (BEJA (POR/GER-AF, PT) observed 1600 UTC 18 March 2019
Temperature: 20.0°C (68°F)
Dewpoint: 7.0°C (45°F) [RH = 43%]
Pressure (altimeter): 30.15 inches Hg (1021.0 mb)
Winds: from the NE (50 degrees) at 14 MPH (12 knots; 6.2 m/s)
Visibility: 6 or more miles (10+ km)
Ceiling: at least 12,000 feet AGL
Clouds: few clouds at 4500 feet AGL
Weather: no significant weather observed at this time

METAR text: LPBJ 181500Z 07011KT 040V100 9999 FEW040 21/07 Q1021
Conditions at: LPBJ (BEJA (POR/GER-AF, PT) observed 1500 UTC 18 March 2019
Temperature: 21.0°C (70°F)
Dewpoint: 7.0°C (45°F) [RH = 40%]
Pressure (altimeter): 30.15 inches Hg (1021.0 mb)
Winds: from the ENE (70 degrees) at 13 MPH (11 knots; 5.7 m/s)
Visibility: 6 or more miles (10+ km)
Ceiling: at least 12,000 feet AGL
Clouds: few clouds at 4000 feet AGL
Weather: no significant weather observed at this time

METAR text: LPBJ 181400Z 06011KT 030V100 9999 FEW035 19/08 Q1022
Conditions at: LPBJ (BEJA (POR/GER-AF, PT) observed 1400 UTC 18 March 2019
Temperature: 19.0°C (66°F)
Dewpoint: 8.0°C (46°F) [RH = 49%]
Pressure (altimeter): 30.18 inches Hg (1022.0 mb)
Winds: from the ENE (60 degrees) at 13 MPH (11 knots; 5.7 m/s)
Visibility: 6 or more miles (10+ km)
Ceiling: at least 12,000 feet AGL
Clouds: few clouds at 3500 feet AGL
Weather: no significant weather observed at this time

METAR text: LPBJ 181300Z 07010KT 030V120 9999 FEW030 18/07 Q1022
Conditions at: LPBJ (BEJA (POR/GER-AF, PT) observed 1300 UTC 18 March 2019
Temperature: 18.0°C (64°F)
Dewpoint: 7.0°C (45°F) [RH = 49%]
Pressure (altimeter): 30.18 inches Hg (1022.0 mb)
Winds: from the ENE (70 degrees) at 12 MPH (10 knots; 5.1 m/s)
Visibility: 6 or more miles (10+ km)
Ceiling: at least 12,000 feet AGL
Clouds: few clouds at 3000 feet AGL
Weather: no significant weather observed at this time

METAR text: LPBJ 181200Z 05007KT 360V090 CAVOK 17/07 Q1023
Conditions at: LPBJ (BEJA (POR/GER-AF, PT) observed 1200 UTC 18 March 2019
Temperature: 17.0°C (63°F)
Dewpoint: 7.0°C (45°F) [RH = 52%]
Pressure (altimeter): 30.21 inches Hg (1023.0 mb)
Winds: from the NE (50 degrees) at 8 MPH (7 knots; 3.6 m/s)
Visibility: 6 or more miles (10+ km)
Ceiling: ceiling and visibility are OK
Clouds: unknown
Weather: no significant weather observed at this time

METAR text: LPBJ 181100Z 07007KT 030V100 CAVOK 15/08 Q1023
Conditions at: LPBJ (BEJA (POR/GER-AF, PT) observed 1100 UTC 18 March 2019
Temperature: 15.0°C (59°F)
Dewpoint: 8.0°C (46°F) [RH = 63%]
Pressure (altimeter): 30.21 inches Hg (1023.0 mb)
Winds: from the ENE (70 degrees) at 8 MPH (7 knots; 3.6 m/s)
Visibility: 6 or more miles (10+ km)
Ceiling: ceiling and visibility are OK
Clouds: unknown
Weather: no significant weather observed at this time

METAR text: LPBJ 181000Z 07006KT 040V100 CAVOK 12/07 Q1023
Conditions at: LPBJ (BEJA (POR/GER-AF, PT) observed 1000 UTC 18 March 2019
Temperature: 12.0°C (54°F)
Dewpoint: 7.0°C (45°F) [RH = 71%]
Pressure (altimeter): 30.21 inches Hg (1023.0 mb)
Winds: from the ENE (70 degrees) at 7 MPH (6 knots; 3.1 m/s)
Visibility: 6 or more miles (10+ km)
Ceiling: ceiling and visibility are OK
Clouds: unknown
Weather: no significant weather observed at this time

METAR text: LPBJ 180900Z 04003KT 360V080 CAVOK 10/07 Q1022
Conditions at: LPBJ (BEJA (POR/GER-AF, PT) observed 0900 UTC 18 March 2019
Temperature: 10.0°C (50°F)
Dewpoint: 7.0°C (45°F) [RH = 82%]
Pressure (altimeter): 30.18 inches Hg (1022.0 mb)
Winds: from the NE (40 degrees) at 3 MPH (3 knots; 1.5 m/s)
Visibility: 6 or more miles (10+ km)
Ceiling: ceiling and visibility are OK
Clouds: unknown
Weather: no significant weather observed at this time

METAR text: LPBJ 180800Z VRB02KT 8000 VCFG NSC 08/07 Q1022
Conditions at: LPBJ (BEJA (POR/GER-AF, PT) observed 0800 UTC 18 March 2019
Temperature: 8.0°C (46°F)
Dewpoint: 7.0°C (45°F) [RH = 93%]
Pressure (altimeter): 30.18 inches Hg (1022.0 mb)
Winds: variable direction winds at 2 MPH (2 knots; 1.0 m/s)
Visibility: 5 miles ( 8 km)
Ceiling: at least 12,000 feet AGL
Clouds: sky clear below 12,000 feet AGL
Weather: VCFG  (fog in vicinity)

METAR text: LPBJ 180700Z 29002KT 7000 3000S BCFG NSC 06/05 Q1021
Conditions at: LPBJ (BEJA (POR/GER-AF, PT) observed 0700 UTC 18 March 2019
Temperature: 6.0°C (43°F)
Dewpoint: 5.0°C (41°F) [RH = 93%]
Pressure (altimeter): 30.15 inches Hg (1021.0 mb)
Winds: from the WNW (290 degrees) at 2 MPH (2 knots; 1.0 m/s)
Visibility: 4 miles ( 7 km)
Ceiling: at least 12,000 feet AGL
Clouds: sky clear below 12,000 feet AGL
Weather: BCFG  (patches of fog)

METAR text: LPBJ 180600Z 30005KT 8000 VCFG FEW015 06/05 Q1021
Conditions at: LPBJ (BEJA (POR/GER-AF, PT) observed 0600 UTC 18 March 2019
Temperature: 6.0°C (43°F)
Dewpoint: 5.0°C (41°F) [RH = 93%]
Pressure (altimeter): 30.15 inches Hg (1021.0 mb)
Winds: from the WNW (300 degrees) at 6 MPH (5 knots; 2.6 m/s)
Visibility: 5 miles ( 8 km)
Ceiling: at least 12,000 feet AGL
Clouds: few clouds at 1500 feet AGL
Weather: VCFG  (fog in vicinity)

METAR text: LPBJ 180500Z 29004KT 8000 VCFG SCT018 06/05 Q1021
Conditions at: LPBJ (BEJA (POR/GER-AF, PT) observed 0500 UTC 18 March 2019
Temperature: 6.0°C (43°F)
Dewpoint: 5.0°C (41°F) [RH = 93%]
Pressure (altimeter): 30.15 inches Hg (1021.0 mb)
Winds: from the WNW (290 degrees) at 5 MPH (4 knots; 2.1 m/s)
Visibility: 5 miles ( 8 km)
Ceiling: at least 12,000 feet AGL
Clouds: scattered clouds at 1800 feet AGL
Weather: VCFG  (fog in vicinity)

METAR text: LPBJ 180400Z 30004KT 8000 VCFG SCT022 06/05 Q1021
Conditions at: LPBJ (BEJA (POR/GER-AF, PT) observed 0400 UTC 18 March 2019
Temperature: 6.0°C (43°F)
Dewpoint: 5.0°C (41°F) [RH = 93%]
Pressure (altimeter): 30.15 inches Hg (1021.0 mb)
Winds: from the WNW (300 degrees) at 5 MPH (4 knots; 2.1 m/s)
Visibility: 5 miles ( 8 km)
Ceiling: at least 12,000 feet AGL
Clouds: scattered clouds at 2200 feet AGL
Weather: VCFG  (fog in vicinity)

METAR text: LPBJ 180300Z 29006KT 9999 SCT030 06/05 Q1021
Conditions at: LPBJ (BEJA (POR/GER-AF, PT) observed 0300 UTC 18 March 2019
Temperature: 6.0°C (43°F)
Dewpoint: 5.0°C (41°F) [RH = 93%]
Pressure (altimeter): 30.15 inches Hg (1021.0 mb)
Winds: from the WNW (290 degrees) at 7 MPH (6 knots; 3.1 m/s)
Visibility: 6 or more miles (10+ km)
Ceiling: at least 12,000 feet AGL
Clouds: scattered clouds at 3000 feet AGL
Weather: no significant weather observed at this time

METAR text: LPBJ 180200Z 31006KT 9999 BKN028 08/06 Q1022
Conditions at: LPBJ (BEJA (POR/GER-AF, PT) observed 0200 UTC 18 March 2019
Temperature: 8.0°C (46°F)
Dewpoint: 6.0°C (43°F) [RH = 87%]
Pressure (altimeter): 30.18 inches Hg (1022.0 mb)
Winds: from the NW (310 degrees) at 7 MPH (6 knots; 3.1 m/s)
Visibility: 6 or more miles (10+ km)
Ceiling: 2800 feet AGL
Clouds: broken clouds at 2800 feet AGL
Weather: no significant weather observed at this time

METAR text: LPBJ 180100Z 32009KT 9999 FEW014 BKN028 10/07 Q1022
Conditions at: LPBJ (BEJA (POR/GER-AF, PT) observed 0100 UTC 18 March 2019
Temperature: 10.0°C (50°F)
Dewpoint: 7.0°C (45°F) [RH = 82%]
Pressure (altimeter): 30.18 inches Hg (1022.0 mb)
Winds: from the NW (320 degrees) at 10 MPH (9 knots; 4.6 m/s)
Visibility: 6 or more miles (10+ km)
Ceiling: 2800 feet AGL
Clouds: few clouds at 1400 feet AGL
broken clouds at 2800 feet AGL
Weather: no significant weather observed at this time

METAR text: LPBJ 180000Z 33011KT 9999 FEW014 SCT028 11/09 Q1022
Conditions at: LPBJ (BEJA (POR/GER-AF, PT) observed 0000 UTC 18 March 2019
Temperature: 11.0°C (52°F)
Dewpoint: 9.0°C (48°F) [RH = 87%]
Pressure (altimeter): 30.18 inches Hg (1022.0 mb)
Winds: from the NNW (330 degrees) at 13 MPH (11 knots; 5.7 m/s)
Visibility: 6 or more miles (10+ km)
Ceiling: at least 12,000 feet AGL
Clouds: few clouds at 1400 feet AGL
scattered clouds at 2800 feet AGL
Weather: no significant weather observed at this time

METAR text: LPBJ 172300Z 32006KT 9999 FEW012 11/10 Q1022
Conditions at: LPBJ (BEJA (POR/GER-AF, PT) observed 2300 UTC 17 March 2019
Temperature: 11.0°C (52°F)
Dewpoint: 10.0°C (50°F) [RH = 94%]
Pressure (altimeter): 30.18 inches Hg (1022.0 mb)
Winds: from the NW (320 degrees) at 7 MPH (6 knots; 3.1 m/s)
Visibility: 6 or more miles (10+ km)
Ceiling: at least 12,000 feet AGL
Clouds: few clouds at 1200 feet AGL
Weather: no significant weather observed at this time

METAR text: LPBJ 172200Z 31008KT 9999 FEW035 12/10 Q1022
Conditions at: LPBJ (BEJA (POR/GER-AF, PT) observed 2200 UTC 17 March 2019
Temperature: 12.0°C (54°F)
Dewpoint: 10.0°C (50°F) [RH = 88%]
Pressure (altimeter): 30.18 inches Hg (1022.0 mb)
Winds: from the NW (310 degrees) at 9 MPH (8 knots; 4.1 m/s)
Visibility: 6 or more miles (10+ km)
Ceiling: at least 12,000 feet AGL
Clouds: few clouds at 3500 feet AGL
Weather: no significant weather observed at this time

METAR text: LPBJ 172100Z 32009KT 9999 FEW035 12/09 Q1022
Conditions at: LPBJ (BEJA (POR/GER-AF, PT) observed 2100 UTC 17 March 2019
Temperature: 12.0°C (54°F)
Dewpoint: 9.0°C (48°F) [RH = 82%]
Pressure (altimeter): 30.18 inches Hg (1022.0 mb)
Winds: from the NW (320 degrees) at 10 MPH (9 knots; 4.6 m/s)
Visibility: 6 or more miles (10+ km)
Ceiling: at least 12,000 feet AGL
Clouds: few clouds at 3500 feet AGL
Weather: no significant weather observed at this time

METAR text: LPBJ 172000Z 32008KT 9999 FEW035 13/09 Q1022
Conditions at: LPBJ (BEJA (POR/GER-AF, PT) observed 2000 UTC 17 March 2019
Temperature: 13.0°C (55°F)
Dewpoint: 9.0°C (48°F) [RH = 77%]
Pressure (altimeter): 30.18 inches Hg (1022.0 mb)
Winds: from the NW (320 degrees) at 9 MPH (8 knots; 4.1 m/s)
Visibility: 6 or more miles (10+ km)
Ceiling: at least 12,000 feet AGL
Clouds: few clouds at 3500 feet AGL
Weather: no significant weather observed at this time

METAR text: LPBJ 171900Z 33009KT 9999 FEW038 15/09 Q1021
Conditions at: LPBJ (BEJA (POR/GER-AF, PT) observed 1900 UTC 17 March 2019
Temperature: 15.0°C (59°F)
Dewpoint: 9.0°C (48°F) [RH = 67%]
Pressure (altimeter): 30.15 inches Hg (1021.0 mb)
Winds: from the NNW (330 degrees) at 10 MPH (9 knots; 4.6 m/s)
Visibility: 6 or more miles (10+ km)
Ceiling: at least 12,000 feet AGL
Clouds: few clouds at 3800 feet AGL
Weather: no significant weather observed at this time

Forecast for: LPBJ (BEJA (POR/GER-AF, PT)
Text: TAF LPBJ 190500Z 1906/2006 VRB02KT CAVOK
Forecast period: 0600 to 0900 UTC 19 March 2019
Forecast type: FROM: standard forecast or significant change
Winds: variable direction winds at 2 MPH (2 knots; 1.0 m/s)
Visibility: 6 or more miles 10+ km)
Ceiling: unknown
Clouds: missing
Weather: NSW  (no significant weather)
Text: BECMG 1909/1911 03008KT
Forecast period: 0900 UTC 19 March 2019 to 0600 UTC 20 March 2019
Forecast type: BECOMING: Conditions expected to become as follows by 1100 UTC 19 March 2019
Winds: from the NNE (30 degrees) at 9 MPH (8 knots; 4.1 m/s)
Visibility: 6 or more miles 10+ km)
Ceiling: unknown
Clouds: missing
Weather: NSW  (no significant weather)